Time,TemperatureF,DewpointF,PressureIn,WindDirection,WindDirectionDegrees,WindSpeedMPH,WindSpeedGustMPH,Humidity,HourlyPrecipIn,Conditions,Clouds,dailyrainin,SoftwareType,DateUTC
2013-04-21 00:02:00,49.0,-99.9,30.11,NW,313,3.0,7.0,-999,-99.99,,,-99.99,,2013-04-21 07:02:00,
2013-04-21 00:12:00,49.0,-99.9,30.10,West,274,2.0,4.0,-999,-99.99,,,-99.99,,2013-04-21 07:12:00,
2013-04-21 00:22:00,49.0,-99.9,30.10,ENE,73,2.0,5.0,-999,-99.99,,,-99.99,,2013-04-21 07:22:00,
2013-04-21 00:32:00,48.0,-99.9,30.10,West,273,3.0,6.0,-999,-99.99,,,-99.99,,2013-04-21 07:32:00,
2013-04-21 00:42:00,48.0,-99.9,30.10,NW,312,3.0,9.0,-999,-99.99,,,-99.99,,2013-04-21 07:42:00,
2013-04-21 00:52:00,48.0,-99.9,30.10,NW,320,4.0,8.0,-999,-99.99,,,-99.99,,2013-04-21 07:52:00,
2013-04-21 01:02:00,48.0,-99.9,30.10,NW,304,3.0,6.0,-999,-99.99,,,-99.99,,2013-04-21 08:02:00,
2013-04-21 01:12:00,48.0,-99.9,30.10,West,261,3.0,9.0,-999,-99.99,,,-99.99,,2013-04-21 08:12:00,
2013-04-21 01:22:00,48.0,-99.9,30.09,WNW,302,3.0,6.0,-999,-99.99,,,-99.99,,2013-04-21 08:22:00,
2013-04-21 01:32:00,48.0,-99.9,30.10,NW,323,4.0,10.0,-999,-99.99,,,-99.99,,2013-04-21 08:32:00,
2013-04-21 01:42:00,48.0,-99.9,30.10,ENE,57,3.0,8.0,-999,-99.99,,,-99.99,,2013-04-21 08:42:00,
2013-04-21 01:52:00,48.0,-99.9,30.10,WNW,296,2.0,7.0,-999,-99.99,,,-99.99,,2013-04-21 08:52:00,
2013-04-21 02:02:00,48.0,-99.9,30.09,NW,308,5.0,10.0,-999,-99.99,,,-99.99,,2013-04-21 09:02:00,
2013-04-21 02:12:00,48.0,-99.9,30.09,NW,312,5.0,9.0,-999,-99.99,,,-99.99,,2013-04-21 09:12:00,
2013-04-21 02:22:00,48.0,-99.9,30.09,WNW,302,6.0,12.0,-999,-99.99,,,-99.99,,2013-04-21 09:22:00,
2013-04-21 02:33:00,48.0,-99.9,30.09,WNW,300,5.0,10.0,-999,-99.99,,,-99.99,,2013-04-21 09:33:00,
2013-04-21 02:43:00,48.0,-99.9,30.09,WNW,302,5.0,10.0,-999,-99.99,,,-99.99,,2013-04-21 09:43:00,
2013-04-21 02:53:00,48.0,-99.9,30.08,NW,306,6.0,14.0,-999,-99.99,,,-99.99,,2013-04-21 09:53:00,
2013-04-21 03:03:00,48.0,-99.9,30.08,WNW,297,7.0,11.0,-999,-99.99,,,-99.99,,2013-04-21 10:03:00,
2013-04-21 03:12:00,48.0,-99.9,30.08,WNW,301,7.0,12.0,-999,-99.99,,,-99.99,,2013-04-21 10:12:00,
2013-04-21 03:22:00,48.0,-99.9,30.08,NW,317,4.0,10.0,-999,-99.99,,,-99.99,,2013-04-21 10:22:00,
2013-04-21 03:33:00,47.0,-99.9,30.07,WNW,294,4.0,14.0,-999,-99.99,,,-99.99,,2013-04-21 10:33:00,
2013-04-21 03:42:00,47.0,-99.9,30.07,NNW,340,3.0,8.0,-999,-99.99,,,-99.99,,2013-04-21 10:42:00,
2013-04-21 03:52:00,47.0,-99.9,30.07,NW,304,4.0,10.0,-999,-99.99,,,-99.99,,2013-04-21 10:52:00,
2013-04-21 04:03:00,47.0,-99.9,30.07,WSW,238,2.0,7.0,-999,-99.99,,,-99.99,,2013-04-21 11:03:00,
2013-04-21 04:12:00,47.0,-99.9,30.06,SW,236,3.0,6.0,-999,-99.99,,,-99.99,,2013-04-21 11:12:00,
2013-04-21 04:22:00,47.0,-99.9,30.06,WNW,284,3.0,8.0,-999,-99.99,,,-99.99,,2013-04-21 11:22:00,
2013-04-21 04:34:00,47.0,-99.9,30.06,ENE,64,2.0,6.0,-999,-99.99,,,-99.99,,2013-04-21 11:34:00,
2013-04-21 04:42:00,47.0,-99.9,30.06,South,183,2.0,8.0,-999,-99.99,,,-99.99,,2013-04-21 11:42:00,
2013-04-21 04:52:00,47.0,-99.9,30.06,NW,314,3.0,7.0,-999,-99.99,,,-99.99,,2013-04-21 11:52:00,
2013-04-21 05:03:00,47.0,-99.9,30.07,NNW,327,3.0,6.0,-999,-99.99,,,-99.99,,2013-04-21 12:03:00,
2013-04-21 05:12:00,47.0,-99.9,30.07,West,281,5.0,10.0,-999,-99.99,,,-99.99,,2013-04-21 12:12:00,
2013-04-21 05:22:00,47.0,-99.9,30.07,WSW,257,3.0,11.0,-999,-99.99,,,-99.99,,2013-04-21 12:22:00,
2013-04-21 05:32:00,47.0,-99.9,30.07,NW,312,6.0,8.0,-999,-99.99,,,-99.99,,2013-04-21 12:32:00,
2013-04-21 05:42:00,47.0,-99.9,30.07,WNW,301,7.0,13.0,-999,-99.99,,,-99.99,,2013-04-21 12:42:00,
2013-04-21 05:52:00,47.0,-99.9,30.07,NNW,337,1.0,6.0,-999,-99.99,,,-99.99,,2013-04-21 12:52:00,
2013-04-21 06:02:00,-999.0,-99.9,-100.00,South,191,2.0,8.0,-999,-99.99,,,-99.99,,2013-04-21 13:02:00,
2013-04-21 06:12:00,47.0,-99.9,30.07,WNW,282,2.0,6.0,-999,-99.99,,,-99.99,,2013-04-21 13:12:00,
2013-04-21 06:22:00,47.0,-99.9,30.07,North,7,4.0,8.0,-999,-99.99,,,-99.99,,2013-04-21 13:22:00,
2013-04-21 06:32:00,47.0,-99.9,30.06,WNW,302,3.0,5.0,-999,-99.99,,,-99.99,,2013-04-21 13:32:00,
2013-04-21 06:42:00,47.0,-99.9,30.07,WNW,292,3.0,7.0,-999,-99.99,,,-99.99,,2013-04-21 13:42:00,
2013-04-21 06:52:00,47.0,-99.9,30.07,NW,306,2.0,6.0,-999,-99.99,,,-99.99,,2013-04-21 13:52:00,
2013-04-21 07:02:00,47.0,-99.9,30.07,NW,323,5.0,11.0,-999,-99.99,,,-99.99,,2013-04-21 14:02:00,
2013-04-21 07:11:00,47.0,-99.9,30.07,NW,305,5.0,10.0,-999,-99.99,,,-99.99,,2013-04-21 14:11:00,
2013-04-21 07:22:00,47.0,-99.9,30.07,NNW,334,4.0,9.0,-999,-99.99,,,-99.99,,2013-04-21 14:22:00,
2013-04-21 07:32:00,-999.0,-99.9,-100.00,NW,317,5.0,10.0,-999,-99.99,,,-99.99,,2013-04-21 14:32:00,
2013-04-21 07:42:00,47.0,-99.9,30.07,WNW,302,5.0,8.0,-999,-99.99,,,-99.99,,2013-04-21 14:42:00,
2013-04-21 07:52:00,47.0,-99.9,30.07,NW,310,3.0,6.0,-999,-99.99,,,-99.99,,2013-04-21 14:52:00,
2013-04-21 08:02:00,47.0,-99.9,30.08,North,353,3.0,5.0,-999,-99.99,,,-99.99,,2013-04-21 15:02:00,
2013-04-21 08:12:00,47.0,-99.9,30.08,North,357,4.0,7.0,-999,-99.99,,,-99.99,,2013-04-21 15:12:00,
2013-04-21 08:22:00,-999.0,-99.9,-100.00,NW,317,3.0,6.0,-999,-99.99,,,-99.99,,2013-04-21 15:22:00,
2013-04-21 08:33:00,48.0,-99.9,30.08,NNW,342,4.0,9.0,-999,-99.99,,,-99.99,,2013-04-21 15:33:00,
2013-04-21 08:43:00,49.0,-99.9,30.08,NW,315,6.0,10.0,-999,-99.99,,,-99.99,,2013-04-21 15:43:00,
2013-04-21 08:53:00,49.0,-99.9,30.08,NW,324,7.0,11.0,-999,-99.99,,,-99.99,,2013-04-21 15:53:00,
2013-04-21 09:03:00,49.0,-99.9,30.08,NW,309,6.0,13.0,-999,-99.99,,,-99.99,,2013-04-21 16:03:00,
2013-04-21 09:13:00,49.0,-99.9,30.09,NW,326,5.0,10.0,-999,-99.99,,,-99.99,,2013-04-21 16:13:00,
2013-04-21 09:23:00,49.0,-99.9,30.09,NNW,342,5.0,12.0,-999,-99.99,,,-99.99,,2013-04-21 16:23:00,
2013-04-21 09:33:00,49.0,-99.9,30.09,NW,312,6.0,10.0,-999,-99.99,,,-99.99,,2013-04-21 16:33:00,
2013-04-21 09:42:00,49.0,-99.9,30.09,NW,313,8.0,12.0,-999,-99.99,,,-99.99,,2013-04-21 16:42:00,
2013-04-21 09:53:00,49.0,-99.9,30.09,WNW,293,7.0,16.0,-999,-99.99,,,-99.99,,2013-04-21 16:53:00,
2013-04-21 10:02:00,50.0,-99.9,30.09,NW,320,7.0,13.0,-999,-99.99,,,-99.99,,2013-04-21 17:02:00,
2013-04-21 10:12:00,50.0,-99.9,30.09,North,1,4.0,9.0,-999,-99.99,,,-99.99,,2013-04-21 17:12:00,
2013-04-21 10:23:00,32.0,-99.9,-100.00,NW,322,4.0,12.0,-999,-99.99,,,-99.99,,2013-04-21 17:23:00,
2013-04-21 10:32:00,50.0,-99.9,30.09,NW,320,8.0,14.0,-999,-99.99,,,-99.99,,2013-04-21 17:32:00,
2013-04-21 10:42:00,50.0,-99.9,30.09,NW,308,11.0,16.0,-999,-99.99,,,-99.99,,2013-04-21 17:42:00,
2013-04-21 10:52:00,50.0,-99.9,30.10,WNW,300,8.0,14.0,-999,-99.99,,,-99.99,,2013-04-21 17:52:00,
2013-04-21 11:02:00,50.0,-99.9,30.10,NW,312,10.0,15.0,-999,-99.99,,,-99.99,,2013-04-21 18:02:00,
2013-04-21 11:11:00,50.0,-99.9,30.10,WNW,301,12.0,19.0,-999,-99.99,,,-99.99,,2013-04-21 18:11:00,
2013-04-21 11:22:00,50.0,-99.9,30.11,WNW,302,11.0,17.0,-999,-99.99,,,-99.99,,2013-04-21 18:22:00,
2013-04-21 11:33:00,50.0,-99.9,30.11,WNW,296,6.0,15.0,-999,-99.99,,,-99.99,,2013-04-21 18:33:00,
2013-04-21 11:42:00,50.0,-99.9,30.11,WNW,296,8.0,13.0,-999,-99.99,,,-99.99,,2013-04-21 18:42:00,
2013-04-21 11:52:00,51.0,-99.9,30.11,WNW,284,4.0,9.0,-999,-99.99,,,-99.99,,2013-04-21 18:52:00,
2013-04-21 12:02:00,51.0,-99.9,30.11,NW,314,10.0,18.0,-999,-99.99,,,-99.99,,2013-04-21 19:02:00,
2013-04-21 12:12:00,51.0,-99.9,30.11,NW,314,7.0,13.0,-999,-99.99,,,-99.99,,2013-04-21 19:12:00,
2013-04-21 12:22:00,51.0,-99.9,30.11,WNW,294,6.0,13.0,-999,-99.99,,,-99.99,,2013-04-21 19:22:00,
2013-04-21 12:32:00,51.0,-99.9,30.10,WNW,303,8.0,14.0,-999,-99.99,,,-99.99,,2013-04-21 19:32:00,
2013-04-21 12:43:00,51.0,-99.9,30.10,NW,311,7.0,16.0,-999,-99.99,,,-99.99,,2013-04-21 19:43:00,
2013-04-21 12:52:00,52.0,-99.9,30.10,NW,304,5.0,11.0,-999,-99.99,,,-99.99,,2013-04-21 19:52:00,
2013-04-21 13:02:00,-999.0,-99.9,-100.00,WNW,296,10.0,17.0,-999,-99.99,,,-99.99,,2013-04-21 20:02:00,
2013-04-21 13:11:00,51.0,-99.9,30.09,WNW,299,9.0,15.0,-999,-99.99,,,-99.99,,2013-04-21 20:11:00,
2013-04-21 13:22:00,51.0,-99.9,30.09,WNW,296,9.0,12.0,-999,-99.99,,,-99.99,,2013-04-21 20:22:00,
2013-04-21 13:32:00,-999.0,-99.9,-100.00,WNW,296,8.0,13.0,-999,-99.99,,,-99.99,,2013-04-21 20:32:00,
2013-04-21 13:42:00,51.0,-99.9,30.09,WNW,292,6.0,12.0,-999,-99.99,,,-99.99,,2013-04-21 20:42:00,
2013-04-21 13:52:00,52.0,-99.9,30.09,NW,306,7.0,14.0,-999,-99.99,,,-99.99,,2013-04-21 20:52:00,
2013-04-21 14:02:00,52.0,-99.9,30.09,NW,308,7.0,15.0,-999,-99.99,,,-99.99,,2013-04-21 21:02:00,
2013-04-21 14:12:00,52.0,-99.9,30.09,NW,309,8.0,14.0,-999,-99.99,,,-99.99,,2013-04-21 21:12:00,
2013-04-21 14:22:00,52.0,-99.9,30.08,NW,312,9.0,16.0,-999,-99.99,,,-99.99,,2013-04-21 21:22:00,
2013-04-21 14:33:00,52.0,-99.9,30.08,NW,313,9.0,19.0,-999,-99.99,,,-99.99,,2013-04-21 21:33:00,
2013-04-21 14:43:00,53.0,-99.9,30.08,NW,311,13.0,21.0,-999,-99.99,,,-99.99,,2013-04-21 21:43:00,
2013-04-21 14:53:00,53.0,-99.9,30.07,WNW,303,12.0,15.0,-999,-99.99,,,-99.99,,2013-04-21 21:53:00,
2013-04-21 15:03:00,53.0,-99.9,30.07,NW,314,12.0,18.0,-999,-99.99,,,-99.99,,2013-04-21 22:03:00,
2013-04-21 15:12:00,53.0,-99.9,30.07,WNW,300,9.0,18.0,-999,-99.99,,,-99.99,,2013-04-21 22:12:00,
2013-04-21 15:22:00,53.0,-99.9,30.07,NW,310,12.0,21.0,-999,-99.99,,,-99.99,,2013-04-21 22:22:00,
2013-04-21 15:33:00,53.0,-99.9,30.07,WNW,290,10.0,17.0,-999,-99.99,,,-99.99,,2013-04-21 22:33:00,
2013-04-21 15:43:00,54.0,-99.9,30.06,NW,314,8.0,18.0,-999,-99.99,,,-99.99,,2013-04-21 22:43:00,
2013-04-21 15:53:00,54.0,-99.9,30.06,NW,306,8.0,14.0,-999,-99.99,,,-99.99,,2013-04-21 22:53:00,
2013-04-21 16:02:00,54.0,-99.9,30.06,NW,308,6.0,13.0,-999,-99.99,,,-99.99,,2013-04-21 23:02:00,
2013-04-21 16:12:00,54.0,-99.9,30.06,WNW,295,4.0,9.0,-999,-99.99,,,-99.99,,2013-04-21 23:12:00,
2013-04-21 16:22:00,54.0,-99.9,30.06,NW,311,8.0,12.0,-999,-99.99,,,-99.99,,2013-04-21 23:22:00,
2013-04-21 16:32:00,54.0,-99.9,30.06,NNW,331,6.0,15.0,-999,-99.99,,,-99.99,,2013-04-21 23:32:00,
2013-04-21 16:43:00,54.0,-99.9,30.05,NW,316,6.0,14.0,-999,-99.99,,,-99.99,,2013-04-21 23:43:00,
2013-04-21 16:52:00,55.0,-99.9,30.05,NW,314,4.0,10.0,-999,-99.99,,,-99.99,,2013-04-21 23:52:00,
2013-04-21 17:02:00,55.0,-99.9,30.04,WSW,244,3.0,8.0,-999,-99.99,,,-99.99,,2013-04-22 00:02:00,
2013-04-21 17:12:00,55.0,-99.9,30.04,SE,144,4.0,10.0,-999,-99.99,,,-99.99,,2013-04-22 00:12:00,
2013-04-21 17:22:00,55.0,-99.9,30.04,WNW,301,4.0,8.0,-999,-99.99,,,-99.99,,2013-04-22 00:22:00,
2013-04-21 17:32:00,55.0,-99.9,30.04,NW,304,7.0,13.0,-999,-99.99,,,-99.99,,2013-04-22 00:32:00,
2013-04-21 17:42:00,55.0,-99.9,30.03,North,350,3.0,11.0,-999,-99.99,,,-99.99,,2013-04-22 00:42:00,
2013-04-21 17:52:00,55.0,-99.9,30.03,West,265,3.0,8.0,-999,-99.99,,,-99.99,,2013-04-22 00:52:00,
2013-04-21 18:01:00,55.0,-99.9,30.03,NW,321,6.0,13.0,-999,-99.99,,,-99.99,,2013-04-22 01:01:00,
2013-04-21 18:12:00,55.0,-99.9,30.03,WNW,302,7.0,14.0,-999,-99.99,,,-99.99,,2013-04-22 01:12:00,
2013-04-21 18:22:00,55.0,-99.9,30.03,NW,304,6.0,14.0,-999,-99.99,,,-99.99,,2013-04-22 01:22:00,
2013-04-21 18:32:00,55.0,-99.9,30.03,WNW,289,4.0,12.0,-999,-99.99,,,-99.99,,2013-04-22 01:32:00,
2013-04-21 18:42:00,55.0,-99.9,30.03,WNW,283,4.0,11.0,-999,-99.99,,,-99.99,,2013-04-22 01:42:00,
2013-04-21 18:52:00,55.0,-99.9,30.03,NW,310,4.0,13.0,-999,-99.99,,,-99.99,,2013-04-22 01:52:00,
2013-04-21 19:02:00,55.0,-99.9,30.02,WNW,282,4.0,7.0,-999,-99.99,,,-99.99,,2013-04-22 02:02:00,
2013-04-21 19:12:00,55.0,-99.9,30.02,ENE,72,2.0,6.0,-999,-99.99,,,-99.99,,2013-04-22 02:12:00,
2013-04-21 19:22:00,55.0,-99.9,30.02,West,260,3.0,10.0,-999,-99.99,,,-99.99,,2013-04-22 02:22:00,
2013-04-21 19:32:00,54.0,-99.9,30.02,WNW,291,4.0,11.0,-999,-99.99,,,-99.99,,2013-04-22 02:32:00,
2013-04-21 19:42:00,54.0,-99.9,30.01,WNW,282,3.0,10.0,-999,-99.99,,,-99.99,,2013-04-22 02:42:00,
2013-04-21 19:52:00,54.0,-99.9,30.01,WNW,287,3.0,9.0,-999,-99.99,,,-99.99,,2013-04-22 02:52:00,
2013-04-21 20:02:00,53.0,-99.9,30.01,WNW,285,5.0,12.0,-999,-99.99,,,-99.99,,2013-04-22 03:02:00,
2013-04-21 20:11:00,53.0,-99.9,30.01,WNW,287,4.0,9.0,-999,-99.99,,,-99.99,,2013-04-22 03:11:00,
2013-04-21 20:22:00,53.0,-99.9,30.01,West,275,3.0,12.0,-999,-99.99,,,-99.99,,2013-04-22 03:22:00,
2013-04-21 20:33:00,53.0,-99.9,30.02,WNW,303,6.0,11.0,-999,-99.99,,,-99.99,,2013-04-22 03:33:00,
2013-04-21 20:43:00,53.0,-99.9,30.02,SE,133,3.0,13.0,-999,-99.99,,,-99.99,,2013-04-22 03:43:00,
2013-04-21 20:53:00,53.0,-99.9,30.02,South,171,4.0,10.0,-999,-99.99,,,-99.99,,2013-04-22 03:53:00,
2013-04-21 21:03:00,53.0,-99.9,30.02,NNW,343,4.0,8.0,-999,-99.99,,,-99.99,,2013-04-22 04:03:00,
2013-04-21 21:13:00,53.0,-99.9,30.02,WNW,295,4.0,8.0,-999,-99.99,,,-99.99,,2013-04-22 04:13:00,
2013-04-21 21:23:00,53.0,-99.9,30.02,ENE,71,4.0,6.0,-999,-99.99,,,-99.99,,2013-04-22 04:23:00,
2013-04-21 21:33:00,53.0,-99.9,30.03,NE,44,6.0,13.0,-999,-99.99,,,-99.99,,2013-04-22 04:33:00,
2013-04-21 21:43:00,53.0,-99.9,30.03,ENE,62,4.0,10.0,-999,-99.99,,,-99.99,,2013-04-22 04:43:00,
2013-04-21 21:53:00,53.0,-99.9,30.03,ESE,117,1.0,8.0,-999,-99.99,,,-99.99,,2013-04-22 04:53:00,
2013-04-21 22:03:00,53.0,-99.9,30.03,East,89,3.0,7.0,-999,-99.99,,,-99.99,,2013-04-22 05:03:00,
2013-04-21 22:12:00,53.0,-99.9,30.03,NW,315,7.0,15.0,-999,-99.99,,,-99.99,,2013-04-22 05:12:00,
2013-04-21 22:23:00,53.0,-99.9,30.03,WNW,292,3.0,10.0,-999,-99.99,,,-99.99,,2013-04-22 05:23:00,
2013-04-21 22:33:00,53.0,-99.9,30.03,East,99,2.0,5.0,-999,-99.99,,,-99.99,,2013-04-22 05:33:00,
2013-04-21 22:42:00,52.0,-99.9,30.04,NE,37,5.0,13.0,-999,-99.99,,,-99.99,,2013-04-22 05:42:00,
2013-04-21 22:52:00,52.0,-99.9,30.04,NE,48,6.0,12.0,-999,-99.99,,,-99.99,,2013-04-22 05:52:00,
2013-04-21 23:02:00,52.0,-99.9,30.03,West,268,4.0,9.0,-999,-99.99,,,-99.99,,2013-04-22 06:02:00,
2013-04-21 23:12:00,51.0,-99.9,30.03,West,265,4.0,11.0,-999,-99.99,,,-99.99,,2013-04-22 06:12:00,
2013-04-21 23:22:00,51.0,-99.9,30.03,NW,310,5.0,9.0,-999,-99.99,,,-99.99,,2013-04-22 06:22:00,
2013-04-21 23:32:00,51.0,-99.9,30.03,WNW,292,5.0,12.0,-999,-99.99,,,-99.99,,2013-04-22 06:32:00,
2013-04-21 23:42:00,51.0,-99.9,30.03,WNW,300,4.0,9.0,-999,-99.99,,,-99.99,,2013-04-22 06:42:00,
2013-04-21 23:52:00,51.0,-99.9,30.03,SW,223,2.0,9.0,-999,-99.99,,,-99.99,,2013-04-22 06:52:00,